Tutty Cenac — WDH6395 — position and weather

sailwx.info

Track history (hours):
 
Tides and Currents Weather Stations Pressure Air Temp Water Temp Dewpoint Dewpoint Depression Visibility Wind Speed Wind Dir Waves Ship Positions

Tutty Cenac

Owner: Cenac Marine Services, Houma, LA. More information available from US FCC via Universal Licensing System and Coast Guard Vessel Documentation Center.

Last reported at 2017-Dec-11 09:01 UTC. Time now 2017-Dec-11 11:27 UTC.
Position N 30°01' W 093°59'.

Length 22 m; draft 3 m.

Type: Tug. MMSI: 367637490.

Date/timePositionNaut miles runAvg speedWind from/ knotsBaromVisibWave heightAir tempDewpointWater temp
2017-Dec-11 09:01N 30°01' W 093°59'0 0.0
2017-Dec-11 08:46N 30°01' W 093°59'  
2017-Dec-07 12:38N 30°01' W 093°59'  
2017-Dec-04 10:30N 30°04' W 093°20'0 0.0
2017-Dec-04 10:00N 30°04' W 093°20'0 0.0
2017-Dec-04 09:30N 30°04' W 093°20'0 0.0
2017-Dec-04 09:00N 30°04' W 093°20'0 0.0
2017-Dec-04 08:30N 30°04' W 093°20'0 0.0
2017-Dec-04 08:00N 30°04' W 093°20'0 0.0
2017-Dec-04 07:30N 30°04' W 093°20'0 0.6
2017-Dec-04 07:00N 30°04' W 093°21'2 3.2
2017-Dec-04 06:30N 30°04' W 093°22'1 1.0
2017-Dec-04 06:00N 30°04' W 093°23'0 0.0
2017-Dec-04 05:30N 30°04' W 093°23'0 0.0
2017-Dec-04 05:00N 30°04' W 093°23'0 0.0
2017-Dec-04 04:30N 30°04' W 093°23'0 0.0
2017-Dec-04 04:00N 30°04' W 093°23'0 0.0
2017-Dec-04 03:30N 30°04' W 093°23'0 0.0
2017-Dec-04 03:00N 30°04' W 093°23'0 0.0
2017-Dec-04 02:30N 30°04' W 093°23'0 0.0
2017-Dec-04 02:00N 30°04' W 093°23'2 4.5
2017-Dec-04 01:30N 30°04' W 093°26'3 5.4
2017-Dec-04 01:00N 30°04' W 093°29'3 5.6
2017-Dec-04 00:30N 30°04' W 093°32'5 5.8
2017-Dec-03 23:40N 30°04' W 093°38'1 6.3
2017-Dec-03 23:27N 30°04' W 093°39'17 4.3
2017-Dec-03 19:25N 30°01' W 093°59'0 0.0
2017-Dec-03 17:29N 30°01' W 093°59'0 0.0
2017-Dec-03 16:10N 30°01' W 093°59'0 0.0
2017-Dec-03 15:59N 30°01' W 093°59'0 0.0
2017-Dec-03 15:30N 30°01' W 093°59'0 0.0
2017-Dec-03 15:00N 30°01' W 093°59'0 0.0
2017-Dec-03 14:26N 30°01' W 093°59'0 0.0
2017-Dec-03 13:58N 30°01' W 093°59'0 0.0
2017-Dec-03 13:15N 30°01' W 093°59'0 0.0
2017-Dec-03 12:28N 30°01' W 093°59'0 0.0
2017-Dec-03 12:00N 30°01' W 093°59'0 0.0
2017-Dec-03 10:44N 30°01' W 093°59'0 0.0
2017-Dec-03 10:01N 30°01' W 093°59'0 0.0
2017-Dec-03 09:57N 30°01' W 093°59'0 0.0
2017-Dec-03 09:27N 30°01' W 093°59'0 0.0
2017-Dec-03 08:41N 30°01' W 093°59'0 0.0
2017-Dec-03 07:59N 30°01' W 093°59'0 0.0
2017-Dec-03 06:21N 30°01' W 093°59'0 0.0
2017-Dec-03 05:54N 30°01' W 093°59'0 0.0
2017-Dec-03 05:22N 30°01' W 093°59'0 0.0
2017-Dec-03 04:44N 30°01' W 093°59'0 0.0
2017-Dec-03 04:14N 30°01' W 093°59'  
Track history (hours):
 
Tides and Currents Weather Stations Pressure Air Temp Water Temp Dewpoint Dewpoint Depression Visibility Wind Speed Wind Dir Waves Ship Positions

Tutty Cenac

Owner: Cenac Marine Services, Houma, LA. More information available from US FCC via Universal Licensing System and Coast Guard Vessel Documentation Center.

Last reported at 2017-Dec-11 09:01 UTC. Time now 2017-Dec-11 11:27 UTC.
Position N 30°01' W 093°59'.

Length 22 m; draft 3 m.

Type: Tug. MMSI: 367637490.

Date/timePositionNaut miles runAvg speedWind from/ knotsBaromVisibWave heightAir tempDewpointWater temp
2017-Dec-11 09:01N 30°01' W 093°59'0 0.0
2017-Dec-11 08:46N 30°01' W 093°59'  
2017-Dec-07 12:38N 30°01' W 093°59'  
2017-Dec-04 10:30N 30°04' W 093°20'0 0.0
2017-Dec-04 10:00N 30°04' W 093°20'0 0.0
2017-Dec-04 09:30N 30°04' W 093°20'0 0.0
2017-Dec-04 09:00N 30°04' W 093°20'0 0.0
2017-Dec-04 08:30N 30°04' W 093°20'0 0.0
2017-Dec-04 08:00N 30°04' W 093°20'0 0.0
2017-Dec-04 07:30N 30°04' W 093°20'0 0.6
2017-Dec-04 07:00N 30°04' W 093°21'2 3.2
2017-Dec-04 06:30N 30°04' W 093°22'1 1.0
2017-Dec-04 06:00N 30°04' W 093°23'0 0.0
2017-Dec-04 05:30N 30°04' W 093°23'0 0.0
2017-Dec-04 05:00N 30°04' W 093°23'0 0.0
2017-Dec-04 04:30N 30°04' W 093°23'0 0.0
2017-Dec-04 04:00N 30°04' W 093°23'0 0.0
2017-Dec-04 03:30N 30°04' W 093°23'0 0.0
2017-Dec-04 03:00N 30°04' W 093°23'0 0.0
2017-Dec-04 02:30N 30°04' W 093°23'0 0.0
2017-Dec-04 02:00N 30°04' W 093°23'2 4.5
2017-Dec-04 01:30N 30°04' W 093°26'3 5.4
2017-Dec-04 01:00N 30°04' W 093°29'3 5.6
2017-Dec-04 00:30N 30°04' W 093°32'5 5.8
2017-Dec-03 23:40N 30°04' W 093°38'1 6.3
2017-Dec-03 23:27N 30°04' W 093°39'17 4.3
2017-Dec-03 19:25N 30°01' W 093°59'0 0.0
2017-Dec-03 17:29N 30°01' W 093°59'0 0.0
2017-Dec-03 16:10N 30°01' W 093°59'0 0.0
2017-Dec-03 15:59N 30°01' W 093°59'0 0.0
2017-Dec-03 15:30N 30°01' W 093°59'0 0.0
2017-Dec-03 15:00N 30°01' W 093°59'0 0.0
2017-Dec-03 14:26N 30°01' W 093°59'0 0.0
2017-Dec-03 13:58N 30°01' W 093°59'0 0.0
2017-Dec-03 13:15N 30°01' W 093°59'0 0.0
2017-Dec-03 12:28N 30°01' W 093°59'0 0.0
2017-Dec-03 12:00N 30°01' W 093°59'0 0.0
2017-Dec-03 10:44N 30°01' W 093°59'0 0.0
2017-Dec-03 10:01N 30°01' W 093°59'0 0.0
2017-Dec-03 09:57N 30°01' W 093°59'0 0.0
2017-Dec-03 09:27N 30°01' W 093°59'0 0.0
2017-Dec-03 08:41N 30°01' W 093°59'0 0.0
2017-Dec-03 07:59N 30°01' W 093°59'0 0.0
2017-Dec-03 06:21N 30°01' W 093°59'0 0.0
2017-Dec-03 05:54N 30°01' W 093°59'0 0.0
2017-Dec-03 05:22N 30°01' W 093°59'0 0.0
2017-Dec-03 04:44N 30°01' W 093°59'0 0.0
2017-Dec-03 04:14N 30°01' W 093°59'  

Dump ship's entire track history